Astor, Florida
Current Conditions -  °F | °C
As of 10:55 PM on Tuesday 21 Oct 2014 (Local Time) from KDED Reporting Station
Clear Clear  
Wind Chill: 68°   Ceiling: Unl
Heat Index: 68°   Visibility: 10mi
Dew Point: 66°   Wind: 3mph
Humidity: 94%   Direction: 330°NNW
Pressure: 29.97"   Gusts: NA
Location:  29.15°N, 81.53°W
Report Text: KDED 220255Z AUTO 33003KT 10SM CLR 20/19 A2997 RMK AO1
Loading
Personal Weather Stations






























Interactive Weather Map
Tropical Storm Tracking
New forecast layout! Learn more

10-Day Weather Forecast

Advertisements
Track Severe Weather on mobile